Airfield :
LOGIN :

Register | Disclaimer

   EN    FR    IT 

 










Legend :    VFR   Marginal VFR   IFR   Intensive IFR   Very Intensive IFR
Visi :
Ceiling :
>= 8 km
>= 3000ft
5 to 8 km
1000 to 3000 ft
1500m to 5 km
500 to 1000 ft
800 to 1500m
200 to 500 ft
< 800m
< 200 ft
Symbols :   Thunderstorms  Fog  Heavy snow  Heavy precipitations  Wind > 20 kt
SIGMETs :     Misc.  Thunderstorms  Icing  Turbulence  Mountain Waves  Volcanic Ashes







- Airport Elevation : 1411 ft
- IATA code : GVA


LSGG - Genève Cointrin

CURRENT METAR :
  • 201350Z VRB02KT 9999 -RA FEW020 SCT032 BKN040 15/10 Q1010 NOSIG

EXPIRED METARs :
  • 201320Z 22006KT 190V280 9999 -RA FEW020 SCT032 BKN045 15/09 Q1010 NOSIG
  • 201250Z 21004KT 180V270 9999 VCSH FEW018 BKN035 BKN050 15/10 Q1010 NOSIG
  • 201220Z 21004KT 180V270 9999 FEW018 BKN032 BKN050 15/09 Q1009 NOSIG
  • 201150Z 19005KT 9999 FEW018 BKN034 BKN060 15/10 Q1009 NOSIG
  • 201120Z 19006KT 9999 VCSH FEW015 BKN032 BKN045 14/10 Q1009 NOSIG

TAF TAF LSGG
Valid from the 20 at 12:00 until the 21 at 18:00 UTC


201125Z 2012/2118 22006KT 9999 FEW020 SCT030 BKN040 TX16/2015Z TN11/2105Z TX19/2115Z
BECMG 2109/2111 05007KT
ATIS : +41 22 417 40 81
No reported NOTAMs for that airfield.



MET'MAP, your aeronautical weather chart ! - Copyright ORBIFLY December 2007 - Disclaimer

ORBIFLY MET'MAP TEAM :

Programming & Development : Alexandra Zaïnal
Concept & Development : Baudouin d'Aumeries
Co-Development & Prog : Marc-Olivier Méhu
Technical & hardware support : Manuel Goepfert

Contact : metmap@orbifly.com




SOURCES & CREDITS :

   NOAA